Montegut, Louisiana
Current Conditions -  °F | °C
As of 3:47 PM on Saturday 20 Dec 2014 (Local Time) from KHUM Reporting Station
Overcast Overcast  
Wind Chill: 52°   Ceiling: 800
Heat Index: 52°   Visibility: 7mi
Dew Point: 50°   Wind: 9mph
Humidity: 94%   Direction: 10°N
Pressure: 30.1"   Gusts: NA
Location:  29.47°N, 90.56°W
Report Text: KHUM 202147Z 01008KT 7SM OVC008 11/10 A3010 RMK RY12/30 CLSD ATIS G GPS RY36 DV
Loading
Personal Weather Stations






























Interactive Weather Map New forecast layout! Learn more

10-Day Weather Forecast

Advertisements
Track Severe Weather on mobile